Terminal Aerodrome Forecast
Issued by NWS Sterling, VA

Home | Current Version | Previous Version | Text Only | Print | Product List | Glossary On
Versions: 1 2 3 4 5 6 7 8 9 10 11 12 13 14 15 16
000
FTUS41 KLWX 241100
TAFMRB
TAF
KMRB 241122Z 2412/2512 19010KT P6SM BKN100
     FM241600 19016G24KT P6SM BKN060
     FM241700 20017G26KT P6SM SCT050
     FM242000 20017G27KT P6SM SCT250
     FM242300 20011KT P6SM SCT150
     FM250300 24007KT P6SM SCT150=

USA.gov is the U.S. government's official web portal to all federal, state and local government web resources and services.